Time;durP1;ratioP1;P1;durP2;ratioP2;P2;SDS_P1;SDS_P2;PMS_P1;PMS_P2;Temp;Humidity;BMP_temperature;BMP_pressure;BME280_temperature;BME280_humidity;BME280_pressure;Samples;Min_cycle;Max_cycle;Signal;HPM_P1;HPM_P2
2023/01/02 00:02:10;;;;;;;20.10;5.05;;;;;;;10.65;100.00;101015.34;4920556;29;20023;-73
2023/01/02 00:04:35;;;;;;;11.27;4.45;;;;;;;10.56;100.00;100996.34;4952577;29;20118;-74
2023/01/02 00:07:01;;;;;;;22.63;5.90;;;;;;;10.62;100.00;100988.56;4936692;29;20041;-73
2023/01/02 00:09:26;;;;;;;16.77;5.30;;;;;;;10.59;100.00;100995.16;4937080;29;20015;-73
2023/01/02 00:11:51;;;;;;;21.10;5.57;;;;;;;10.60;100.00;100997.69;4953253;29;20028;-74
2023/01/02 00:14:17;;;;;;;14.30;5.00;;;;;;;10.57;100.00;100987.19;4920318;29;20023;-72
2023/01/02 00:16:42;;;;;;;18.60;5.18;;;;;;;10.71;100.00;101001.19;4916775;29;20036;-74
2023/01/02 00:19:07;;;;;;;18.65;5.25;;;;;;;10.53;100.00;100995.78;4933622;29;20028;-74
2023/01/02 00:21:33;;;;;;;10.70;5.15;;;;;;;10.56;100.00;100996.34;4934229;29;20024;-73
2023/01/02 00:23:59;;;;;;;20.42;6.70;;;;;;;10.73;100.00;100985.63;4916976;29;20043;-73
2023/01/02 00:26:24;;;;;;;23.42;7.22;;;;;;;10.56;100.00;100974.66;4918137;29;20043;-74
2023/01/02 00:28:50;;;;;;;13.85;5.55;;;;;;;10.60;100.00;100965.22;4916575;29;20024;-73
2023/01/02 00:31:15;;;;;;;23.65;6.13;;;;;;;10.63;100.00;100968.59;4916769;29;20048;-74
2023/01/02 00:33:40;;;;;;;23.45;6.22;;;;;;;10.63;100.00;100953.25;4917571;29;20495;-73
2023/01/02 00:36:08;;;;;;;19.75;5.82;;;;;;;10.64;100.00;100951.38;4915477;29;20383;-72
2023/01/02 00:38:34;;;;;;;28.63;5.88;;;;;;;10.45;100.00;100945.13;4915269;29;20170;-74
2023/01/02 00:40:59;;;;;;;18.58;6.30;;;;;;;10.53;100.00;100941.63;4915793;29;20039;-73
2023/01/02 00:43:26;;;;;;;27.63;6.88;;;;;;;10.57;100.00;100933.06;4931290;29;20139;-73
2023/01/02 00:45:51;;;;;;;15.35;6.55;;;;;;;10.75;100.00;100924.03;4915597;29;20051;-73
2023/01/02 00:48:16;;;;;;;20.92;6.53;;;;;;;10.75;100.00;100907.78;4915518;29;20039;-73
2023/01/02 00:50:43;;;;;;;22.80;6.88;;;;;;;10.81;100.00;100907.16;4915688;29;20043;-73
2023/01/02 00:53:09;;;;;;;23.90;6.85;;;;;;;10.84;100.00;100906.84;4914737;29;20078;-72
2023/01/02 00:55:34;;;;;;;22.17;6.40;;;;;;;10.79;100.00;100898.34;4915089;29;20052;-72
2023/01/02 00:57:59;;;;;;;19.42;7.03;;;;;;;10.76;100.00;100893.25;4916647;29;20059;-71
2023/01/02 01:00:25;;;;;;;27.60;7.13;;;;;;;10.67;100.00;100884.19;4914608;29;20558;-71
2023/01/02 01:02:55;;;;;;;25.02;6.68;;;;;;;10.54;100.00;100873.78;4915101;29;20055;-71
2023/01/02 01:05:20;;;;;;;21.02;7.68;;;;;;;10.54;100.00;100879.19;4915636;29;20027;-71
2023/01/02 01:07:46;;;;;;;26.55;6.88;;;;;;;10.53;100.00;100861.25;4915393;29;20499;-71
2023/01/02 01:10:11;;;;;;;17.40;6.43;;;;;;;10.60;100.00;100851.50;4914173;29;20079;-71
2023/01/02 01:12:36;;;;;;;21.65;7.25;;;;;;;10.47;100.00;100851.06;4930196;29;20369;-71
2023/01/02 01:15:02;;;;;;;25.90;6.97;;;;;;;10.43;100.00;100849.69;4914306;29;20036;-71
2023/01/02 01:17:28;;;;;;;19.80;7.60;;;;;;;10.48;100.00;100852.75;4929916;29;20034;-71
2023/01/02 01:19:53;;;;;;;26.25;8.10;;;;;;;10.54;100.00;100852.13;4914306;29;20106;-71
2023/01/02 01:22:19;;;;;;;25.60;7.28;;;;;;;10.36;100.00;100854.00;4915647;29;20079;-71
2023/01/02 01:24:44;;;;;;;20.95;8.10;;;;;;;10.44;100.00;100845.97;4914035;29;20028;-71
2023/01/02 01:27:09;;;;;;;33.05;8.82;;;;;;;10.36;100.00;100845.91;4914051;29;20035;-71
2023/01/02 01:29:35;;;;;;;27.95;7.45;;;;;;;10.49;100.00;100854.44;4913743;29;20028;-72
2023/01/02 01:32:00;;;;;;;24.75;8.55;;;;;;;10.43;100.00;100848.81;4914028;29;20028;-72
2023/01/02 01:34:26;;;;;;;31.10;8.50;;;;;;;10.39;100.00;100853.72;4929635;28;20028;-71
2023/01/02 01:36:51;;;;;;;31.88;9.02;;;;;;;10.51;100.00;100849.75;4913682;29;20035;-72
2023/01/02 01:39:16;;;;;;;25.15;9.05;;;;;;;10.48;100.00;100841.94;4913708;29;20119;-71
2023/01/02 01:41:42;;;;;;;22.48;8.40;;;;;;;10.35;100.00;100841.50;4945534;29;20483;-71
2023/01/02 01:44:45;;;;;;;18.98;8.25;;;;;;;10.42;100.00;100839.84;4932967;29;20510;-70
2023/01/02 01:47:32;;;;;;;21.02;8.80;;;;;;;10.44;100.00;100832.44;4933742;29;20067;-70
2023/01/02 01:50:02;;;;;;;22.23;9.13;;;;;;;10.45;100.00;100820.59;4948866;29;20066;-70
2023/01/02 01:52:30;;;;;;;27.55;8.15;;;;;;;10.40;100.00;100816.69;4933845;29;20039;-71
2023/01/02 01:55:02;;;;;;;16.58;7.65;;;;;;;10.51;100.00;100817.25;4933093;29;20083;-70
2023/01/02 01:57:36;;;;;;;29.55;8.30;;;;;;;10.51;100.00;100814.56;4932710;29;20071;-71
2023/01/02 02:00:04;;;;;;;21.90;7.50;;;;;;;10.44;100.00;100807.25;4932890;29;20026;-72
2023/01/02 02:02:31;;;;;;;23.17;7.85;;;;;;;10.55;100.00;100810.50;4934109;29;20027;-73
2023/01/02 02:04:59;;;;;;;22.85;8.95;;;;;;;10.50;100.00;100802.03;4937371;29;20027;-71
2023/01/02 02:07:25;;;;;;;19.10;7.13;;;;;;;10.45;100.00;100793.53;4937559;29;20031;-72
2023/01/02 02:10:01;;;;;;;23.17;7.38;;;;;;;10.48;100.00;100793.22;4927753;29;20036;-72
2023/01/02 02:12:28;;;;;;;22.45;7.85;;;;;;;10.42;100.00;100780.31;4917961;29;20028;-73
2023/01/02 02:14:53;;;;;;;21.42;7.70;;;;;;;10.33;100.00;100783.97;4918374;29;20043;-73
2023/01/02 02:17:42;;;;;;;21.88;8.15;;;;;;;10.30;100.00;100784.28;4932017;29;20035;-73
2023/01/02 02:20:28;;;;;;;17.42;6.70;;;;;;;10.32;100.00;100777.72;4905952;29;20040;-73
2023/01/02 02:23:24;;;;;;;20.63;7.07;;;;;;;10.30;100.00;100762.63;4920750;29;20028;-73
2023/01/02 02:26:10;;;;;;;18.45;8.27;;;;;;;10.41;100.00;100756.97;4921592;29;20047;-73
2023/01/02 02:28:53;;;;;;;24.92;8.38;;;;;;;10.36;100.00;100751.16;4938611;29;20031;-74
2023/01/02 02:31:56;;;;;;;24.08;8.45;;;;;;;10.30;100.00;100739.16;4938513;29;20122;-73
2023/01/02 02:34:28;;;;;;;21.52;8.00;;;;;;;10.30;100.00;100730.16;4937090;29;20024;-73
2023/01/02 02:37:05;;;;;;;32.42;8.05;;;;;;;10.28;100.00;100735.75;4921161;29;20032;-73
2023/01/02 02:40:25;;;;;;;23.13;8.07;;;;;;;10.54;100.00;100733.00;4938538;29;20026;-74
2023/01/02 02:43:24;;;;;;;19.48;7.35;;;;;;;10.47;100.00;100737.38;4916620;29;20058;-74
2023/01/02 02:46:01;;;;;;;24.20;7.90;;;;;;;10.47;100.00;100731.97;4936649;29;20039;-74
2023/01/02 02:48:38;;;;;;;20.30;8.32;;;;;;;10.42;100.00;100737.00;4937298;29;20086;-74
2023/01/02 02:51:08;;;;;;;24.58;7.50;;;;;;;10.45;100.00;100738.56;4936520;29;20463;-74
2023/01/02 02:53:41;;;;;;;31.30;7.70;;;;;;;10.53;100.00;100725.91;4920888;29;20050;-74
2023/01/02 02:56:10;;;;;;;27.20;8.50;;;;;;;10.49;100.00;100723.66;4921098;29;20403;-73
2023/01/02 02:58:37;;;;;;;21.42;7.63;;;;;;;10.43;100.00;100714.38;4920906;29;20030;-73
2023/01/02 03:01:06;;;;;;;21.70;7.65;;;;;;;10.49;100.00;100713.69;4920043;29;20071;-73
2023/01/02 03:03:31;;;;;;;18.02;7.40;;;;;;;10.58;100.00;100701.06;4919948;29;20019;-74
2023/01/02 03:06:30;;;;;;;23.77;7.50;;;;;;;10.55;100.00;100704.91;4937869;29;20020;-74
2023/01/02 03:09:07;;;;;;;18.20;7.90;;;;;;;10.54;100.00;100700.53;4914204;29;20072;-74
2023/01/02 03:12:11;;;;;;;18.75;7.72;;;;;;;10.69;100.00;100694.50;4937084;29;20081;-74
2023/01/02 03:14:52;;;;;;;24.90;8.10;;;;;;;10.73;100.00;100693.16;4936323;29;20024;-74
2023/01/02 03:18:00;;;;;;;22.88;7.80;;;;;;;10.75;100.00;100691.13;4936765;29;20071;-74
2023/01/02 03:20:31;;;;;;;20.23;7.38;;;;;;;10.73;100.00;100683.19;4912907;29;20035;-74
2023/01/02 03:23:00;;;;;;;15.03;6.13;;;;;;;10.70;100.00;100671.84;4937142;29;20036;-73
2023/01/02 03:25:26;;;;;;;23.80;6.85;;;;;;;10.78;100.00;100682.69;4919562;29;20348;-74
2023/01/02 03:27:57;;;;;;;21.60;7.50;;;;;;;10.75;100.00;100674.88;4936744;29;20035;-74
2023/01/02 03:30:22;;;;;;;26.33;7.60;;;;;;;10.86;100.00;100678.13;4920025;29;20034;-74
2023/01/02 03:32:57;;;;;;;18.88;6.78;;;;;;;10.84;100.00;100679.34;4936132;29;20031;-74
2023/01/02 03:35:33;;;;;;;21.35;7.50;;;;;;;10.84;100.00;100676.63;4935783;29;20023;-74
2023/01/02 03:38:01;;;;;;;23.70;6.95;;;;;;;10.81;100.00;100685.06;4920314;29;20075;-74
2023/01/02 03:40:41;;;;;;;15.68;6.30;;;;;;;10.97;100.00;100682.41;4919724;29;20026;-74
2023/01/02 03:43:12;;;;;;;27.00;7.13;;;;;;;10.87;100.00;100681.69;4919977;29;20066;-73
2023/01/02 03:45:46;;;;;;;24.38;7.60;;;;;;;10.93;100.00;100677.47;4920300;29;20035;-73
2023/01/02 03:48:29;;;;;;;18.48;6.07;;;;;;;10.93;100.00;100678.31;4937031;29;20046;-74
2023/01/02 03:50:58;;;;;;;25.00;7.35;;;;;;;10.83;100.00;100675.78;4936704;29;20031;-74
2023/01/02 03:53:24;;;;;;;21.33;6.50;;;;;;;10.82;100.00;100681.34;4936880;29;20027;-74
2023/01/02 03:56:08;;;;;;;21.88;7.75;;;;;;;10.86;100.00;100678.13;4936756;29;20027;-75
2023/01/02 03:58:56;;;;;;;20.65;7.47;;;;;;;10.93;100.00;100667.50;4935244;29;20028;-75
2023/01/02 04:01:36;;;;;;;17.58;6.38;;;;;;;11.04;100.00;100678.03;4919373;29;20032;-75
2023/01/02 04:04:14;;;;;;;25.42;6.57;;;;;;;11.00;100.00;100662.25;4919550;29;20023;-74
2023/01/02 04:06:45;;;;;;;20.17;6.57;;;;;;;11.13;100.00;100665.34;4927120;29;20024;-75
2023/01/02 04:09:17;;;;;;;15.38;6.07;;;;;;;11.29;100.00;100668.06;4936527;29;20034;-74
2023/01/02 04:11:48;;;;;;;23.05;7.05;;;;;;;11.31;100.00;100654.34;4919318;29;20066;-74
2023/01/02 04:14:21;;;;;;;21.63;6.30;;;;;;;11.39;100.00;100657.91;4919374;29;20075;-74
2023/01/02 04:16:49;;;;;;;21.02;6.03;;;;;;;11.52;100.00;100660.09;4919708;29;20051;-74
2023/01/02 04:19:22;;;;;;;17.92;6.13;;;;;;;11.48;100.00;100656.06;4919555;29;20390;-74
2023/01/02 04:21:51;;;;;;;24.30;6.30;;;;;;;11.63;100.00;100659.78;4936254;29;20027;-75
2023/01/02 04:24:23;;;;;;;24.88;6.63;;;;;;;11.67;100.00;100655.72;4919692;29;20025;-74
2023/01/02 04:26:56;;;;;;;24.10;5.35;;;;;;;11.78;100.00;100656.38;4918200;29;20047;-73
2023/01/02 04:29:21;;;;;;;21.42;6.05;;;;;;;11.91;100.00;100652.13;4934495;29;20411;-75
2023/01/02 04:31:55;;;;;;;24.00;5.78;;;;;;;12.10;100.00;100650.06;4919338;29;20035;-74
2023/01/02 04:34:24;;;;;;;22.65;5.57;;;;;;;12.01;100.00;100651.97;4934985;29;20123;-75
2023/01/02 04:36:50;;;;;;;18.75;5.50;;;;;;;12.08;100.00;100652.97;4935671;29;20037;-74
2023/01/02 04:39:19;;;;;;;26.60;6.38;;;;;;;12.12;100.00;100651.56;4934422;29;20020;-74
2023/01/02 04:41:44;;;;;;;20.42;5.72;;;;;;;12.21;100.00;100663.28;4918786;29;20051;-75
2023/01/02 04:44:09;;;;;;;30.40;5.43;;;;;;;12.35;100.00;100664.41;4936596;29;20027;-73
2023/01/02 04:46:35;;;;;;;24.23;5.50;;;;;;;12.19;100.00;100643.59;4919252;29;20377;-74
2023/01/02 04:49:00;;;;;;;29.25;5.43;;;;;;;12.36;100.00;100656.09;4919097;29;20550;-74
2023/01/02 04:51:25;;;;;;;16.52;5.82;;;;;;;12.30;100.00;100645.94;4919286;29;20031;-74
2023/01/02 04:53:52;;;;;;;20.15;5.30;;;;;;;12.13;100.00;100656.00;4919189;29;20030;-75
2023/01/02 04:56:18;;;;;;;22.45;5.63;;;;;;;12.18;100.00;100653.59;4918574;29;20082;-74
2023/01/02 04:58:45;;;;;;;21.33;6.20;;;;;;;11.99;100.00;100648.56;4918705;29;20051;-74
2023/01/02 05:01:13;;;;;;;28.58;5.80;;;;;;;11.93;100.00;100650.13;4918073;29;20059;-74
2023/01/02 05:03:42;;;;;;;23.58;6.60;;;;;;;12.04;100.00;100651.59;4918223;29;20031;-74
2023/01/02 05:06:08;;;;;;;26.30;5.95;;;;;;;12.02;100.00;100642.78;4918033;29;20032;-75
2023/01/02 05:08:34;;;;;;;24.20;5.35;;;;;;;12.05;100.00;100652.44;4918160;29;20119;-73
2023/01/02 05:11:07;;;;;;;25.75;6.22;;;;;;;12.06;100.00;100652.28;4918259;29;20027;-74
2023/01/02 05:13:33;;;;;;;27.25;6.50;;;;;;;12.05;100.00;100645.16;4918918;29;20034;-74
2023/01/02 05:15:59;;;;;;;17.65;5.80;;;;;;;12.01;100.00;100657.38;4918495;29;20036;-75
2023/01/02 05:18:26;;;;;;;21.73;6.35;;;;;;;12.10;100.00;100648.19;4918437;29;20036;-74
2023/01/02 05:20:52;;;;;;;23.80;6.32;;;;;;;11.95;100.00;100647.22;4934112;29;20395;-74
2023/01/02 05:26:01;;;;;;;23.50;6.72;;;;;;;11.99;100.00;100648.56;4935056;29;20078;-74
2023/01/02 05:28:26;;;;;;;20.65;5.95;;;;;;;11.99;100.00;100664.84;4949696;28;20134;-73
2023/01/02 05:30:52;;;;;;;15.68;6.57;;;;;;;11.94;100.00;100656.38;4917915;29;20038;-73
2023/01/02 05:33:17;;;;;;;19.92;6.78;;;;;;;11.84;100.00;100650.28;4917343;29;20031;-73
2023/01/02 05:35:42;;;;;;;17.63;5.90;;;;;;;11.75;100.00;100656.72;4933236;29;20035;-72
2023/01/02 05:38:08;;;;;;;33.28;8.75;;;;;;;11.69;100.00;100653.66;4917192;29;20023;-71
2023/01/02 05:40:33;;;;;;;24.90;7.15;;;;;;;11.62;100.00;100647.25;4917222;29;20036;-71
2023/01/02 05:42:58;;;;;;;20.38;7.03;;;;;;;11.64;100.00;100653.31;4933110;29;20044;-72
2023/01/02 05:45:25;;;;;;;18.88;6.18;;;;;;;11.66;100.00;100670.25;4917227;29;20024;-71
2023/01/02 05:47:50;;;;;;;25.70;6.97;;;;;;;11.57;100.00;100636.03;4917514;29;20027;-71
2023/01/02 05:50:16;;;;;;;24.08;7.00;;;;;;;11.59;100.00;100647.56;4933839;29;20024;-71
2023/01/02 05:52:41;;;;;;;27.15;7.60;;;;;;;11.62;100.00;100652.66;4933344;29;20027;-72
2023/01/02 05:55:07;;;;;;;28.42;7.40;;;;;;;11.62;100.00;100641.81;4917352;29;20400;-72
2023/01/02 05:57:34;;;;;;;25.10;7.07;;;;;;;11.61;100.00;100628.44;4917108;29;20046;-72
2023/01/02 05:59:59;;;;;;;36.47;7.78;;;;;;;11.67;100.00;100644.00;4917493;29;20400;-71
2023/01/02 06:02:24;;;;;;;18.10;6.70;;;;;;;11.67;100.00;100633.16;4929582;29;20035;-71
2023/01/02 06:04:50;;;;;;;25.98;6.93;;;;;;;11.80;100.00;100638.03;4930128;29;20043;-71
2023/01/02 06:07:15;;;;;;;28.52;7.28;;;;;;;11.88;100.00;100619.94;4948769;28;20181;-72
2023/01/02 06:09:40;;;;;;;22.38;7.30;;;;;;;11.91;100.00;100624.16;4933678;29;20028;-71
2023/01/02 06:12:06;;;;;;;23.88;6.25;;;;;;;11.79;100.00;100620.06;4916825;29;20038;-71
2023/01/02 06:14:31;;;;;;;21.10;6.57;;;;;;;11.87;100.00;100622.84;4932948;29;20031;-71
2023/01/02 06:16:57;;;;;;;35.63;6.90;;;;;;;11.93;100.00;100623.00;4923887;29;20476;-71
2023/01/02 06:19:22;;;;;;;27.38;7.10;;;;;;;12.10;100.00;100631.91;4913854;29;20043;-71
2023/01/02 06:21:47;;;;;;;25.38;7.38;;;;;;;11.97;100.00;100628.06;4897952;29;20020;-71
2023/01/02 06:24:13;;;;;;;26.92;7.25;;;;;;;11.96;100.00;100632.63;4898089;29;20031;-71
2023/01/02 06:26:38;;;;;;;24.83;6.97;;;;;;;12.08;100.00;100642.09;4897771;29;20028;-71
2023/01/02 06:29:03;;;;;;;23.58;7.55;;;;;;;12.19;100.00;100644.47;4913422;29;20143;-72
2023/01/02 06:31:29;;;;;;;32.78;8.57;;;;;;;12.16;100.00;100644.78;4914828;29;20051;-72
2023/01/02 06:33:56;;;;;;;22.15;7.40;;;;;;;12.09;100.00;100649.22;4913464;29;20040;-72
2023/01/02 06:36:22;;;;;;;21.13;6.93;;;;;;;12.07;100.00;100651.28;4925458;29;20023;-73
2023/01/02 06:38:48;;;;;;;21.90;7.20;;;;;;;12.11;100.00;100646.31;4902633;29;20017;-73
2023/01/02 06:41:15;;;;;;;27.08;8.13;;;;;;;12.05;100.00;100647.88;4896109;29;20111;-73
2023/01/02 06:43:45;;;;;;;26.73;7.03;;;;;;;11.91;100.00;100635.00;4914203;29;20040;-73
2023/01/02 06:46:12;;;;;;;20.70;8.07;;;;;;;11.93;100.00;100632.97;4896552;29;20076;-73
2023/01/02 06:48:37;;;;;;;29.65;8.18;;;;;;;11.99;100.00;100637.69;4896344;29;20052;-73
2023/01/02 06:51:04;;;;;;;19.83;7.95;;;;;;;11.90;100.00;100638.75;4897605;29;20024;-73
2023/01/02 06:53:33;;;;;;;23.75;8.27;;;;;;;11.97;100.00;100628.91;4899645;29;20119;-73
2023/01/02 06:55:58;;;;;;;24.25;9.02;;;;;;;11.87;100.00;100639.09;4899323;29;20375;-73
2023/01/02 06:58:27;;;;;;;27.33;8.65;;;;;;;11.98;100.00;100646.88;4916042;29;20038;-73
2023/01/02 07:00:53;;;;;;;24.20;9.25;;;;;;;12.03;100.00;100644.47;4912192;29;20123;-73
2023/01/02 07:03:18;;;;;;;32.97;9.00;;;;;;;12.04;100.00;100640.75;4916264;29;20083;-73
2023/01/02 07:05:44;;;;;;;36.03;8.65;;;;;;;12.00;100.00;100639.41;4904726;29;20020;-73
2023/01/02 07:08:10;;;;;;;29.45;9.30;;;;;;;11.97;100.00;100633.47;4901102;29;20040;-73
2023/01/02 07:10:36;;;;;;;30.58;8.90;;;;;;;11.97;100.00;100639.75;4914062;29;20115;-72
2023/01/02 07:13:01;;;;;;;22.55;8.35;;;;;;;11.96;100.00;100643.50;4913639;29;20107;-72
2023/01/02 07:15:27;;;;;;;19.77;7.78;;;;;;;11.96;100.00;100648.91;4915601;29;20076;-72
2023/01/02 07:17:52;;;;;;;24.48;7.93;;;;;;;12.04;100.00;100635.31;4915890;29;20020;-72
2023/01/02 07:20:17;;;;;;;17.02;7.95;;;;;;;12.09;100.00;100654.66;4930921;29;20143;-72
2023/01/02 07:22:49;;;;;;;24.35;8.10;;;;;;;12.16;100.00;100650.22;4930644;29;20024;-72
2023/01/02 07:25:15;;;;;;;25.02;7.47;;;;;;;12.10;100.00;100648.19;4931132;29;20024;-72
2023/01/02 07:27:40;;;;;;;20.38;7.72;;;;;;;12.10;100.00;100645.47;4916877;29;20032;-72
2023/01/02 07:30:06;;;;;;;31.90;8.55;;;;;;;12.09;100.00;100649.22;4917255;29;20024;-71
2023/01/02 07:32:32;;;;;;;19.45;8.32;;;;;;;12.10;100.00;100656.34;4915281;29;20390;-70
2023/01/02 07:34:57;;;;;;;22.02;8.77;;;;;;;12.10;100.00;100660.91;4917108;29;20055;-70
2023/01/02 07:37:22;;;;;;;30.30;8.77;;;;;;;12.08;100.00;100647.53;4923048;29;20059;-70
2023/01/02 07:39:48;;;;;;;21.02;8.13;;;;;;;12.03;100.00;100644.47;4914594;29;20130;-70
2023/01/02 07:42:13;;;;;;;27.50;8.40;;;;;;;12.17;100.00;100657.34;4913105;29;20025;-71
2023/01/02 07:44:38;;;;;;;34.13;8.82;;;;;;;12.21;100.00;100636.97;4915864;29;20020;-69
2023/01/02 07:47:04;;;;;;;21.90;7.75;;;;;;;12.21;100.00;100653.25;4916101;29;20024;-70
2023/01/02 07:49:29;;;;;;;21.45;7.65;;;;;;;12.17;100.00;100651.91;4915940;29;20091;-72
2023/01/02 07:51:54;;;;;;;26.17;7.78;;;;;;;12.23;100.00;100653.94;4915103;29;20055;-70
2023/01/02 07:54:20;;;;;;;17.90;7.55;;;;;;;12.21;100.00;100664.13;4908958;29;20047;-69
2023/01/02 07:56:45;;;;;;;23.58;7.85;;;;;;;12.34;100.00;100652.72;4910260;29;20087;-71
2023/01/02 07:59:11;;;;;;;27.58;8.00;;;;;;;12.29;100.00;100654.25;4910467;29;20118;-71
2023/01/02 08:01:36;;;;;;;20.38;8.15;;;;;;;12.27;100.00;100650.88;4909587;29;20188;-71
2023/01/02 08:04:01;;;;;;;24.08;7.90;;;;;;;12.25;100.00;100664.59;4911448;29;20023;-71
2023/01/02 08:06:27;;;;;;;18.10;7.15;;;;;;;12.30;100.00;100651.34;4916740;29;20127;-69
2023/01/02 08:08:53;;;;;;;21.38;8.38;;;;;;;12.35;100.00;100659.00;4910963;29;20028;-71
2023/01/02 08:11:21;;;;;;;17.38;7.65;;;;;;;12.38;100.00;100647.75;4946371;28;20047;-70
2023/01/02 08:13:46;;;;;;;17.70;7.47;;;;;;;12.33;100.00;100645.59;4926032;29;20027;-71
2023/01/02 08:16:17;;;;;;;23.45;6.78;;;;;;;12.45;100.00;100659.59;4936718;29;20396;-71
2023/01/02 08:18:43;;;;;;;32.92;7.88;;;;;;;12.37;100.00;100660.50;4934817;29;20082;-71
2023/01/02 08:21:09;;;;;;;19.77;6.85;;;;;;;12.38;100.00;100664.91;4937245;29;20027;-71
2023/01/02 08:23:35;;;;;;;29.90;6.72;;;;;;;12.34;100.00;100662.72;4932739;29;20126;-72
2023/01/02 08:26:03;;;;;;;23.48;6.13;;;;;;;12.62;100.00;100654.97;4946363;29;20130;-72
2023/01/02 08:28:29;;;;;;;18.90;6.53;;;;;;;12.43;100.00;100654.34;4932482;29;20039;-72
2023/01/02 08:30:55;;;;;;;27.00;7.85;;;;;;;12.41;100.00;100647.44;4933765;29;20660;-72
2023/01/02 08:33:21;;;;;;;27.15;6.03;;;;;;;12.49;100.00;100660.97;4910956;29;20039;-72
2023/01/02 08:35:46;;;;;;;23.23;6.45;;;;;;;12.52;100.00;100676.94;4932281;29;20055;-72
2023/01/02 08:38:12;;;;;;;18.63;6.00;;;;;;;12.53;100.00;100683.19;4917804;29;20110;-72
2023/01/02 08:40:38;;;;;;;20.40;6.63;;;;;;;12.52;100.00;100674.22;4943367;29;20099;-72
2023/01/02 08:43:06;;;;;;;18.05;6.45;;;;;;;12.57;100.00;100674.50;4937991;29;20030;-71
2023/01/02 08:45:31;;;;;;;15.63;6.63;;;;;;;12.54;100.00;100679.47;4915988;29;20091;-73
2023/01/02 08:47:56;;;;;;;24.23;5.30;;;;;;;12.54;100.00;100685.72;4923389;29;20023;-72
2023/01/02 08:50:22;;;;;;;28.27;7.43;;;;;;;12.53;100.00;100673.19;4934702;29;20079;-72
2023/01/02 08:52:47;;;;;;;19.52;6.53;;;;;;;12.57;100.00;100684.53;4928661;29;20028;-72
2023/01/02 08:55:12;;;;;;;16.80;5.80;;;;;;;12.67;100.00;100680.59;4931883;29;20062;-72
2023/01/02 08:57:38;;;;;;;19.98;6.90;;;;;;;12.64;100.00;100691.78;4927313;29;20428;-72
2023/01/02 09:00:04;;;;;;;23.20;7.03;;;;;;;12.71;100.00;100702.78;4930854;29;20020;-72
2023/01/02 09:02:29;;;;;;;14.95;6.32;;;;;;;12.49;100.00;100683.53;4940225;29;20046;-71
2023/01/02 09:04:55;;;;;;;16.55;5.85;;;;;;;12.60;100.00;100678.75;4932829;29;20050;-71
2023/01/02 09:07:20;;;;;;;13.65;6.00;;;;;;;12.64;100.00;100697.22;4934849;28;20031;-71
2023/01/02 09:09:45;;;;;;;16.55;5.38;;;;;;;12.73;100.00;100701.59;4914580;29;20060;-72
2023/01/02 09:12:11;;;;;;;18.45;5.55;;;;;;;12.73;100.00;100696.19;4915190;29;20050;-72
2023/01/02 09:14:36;;;;;;;16.25;5.43;;;;;;;12.73;100.00;100684.47;4938915;29;20016;-71
2023/01/02 09:17:02;;;;;;;19.48;6.28;;;;;;;12.86;100.00;100689.31;4929060;29;20070;-72
2023/01/02 09:19:27;;;;;;;17.45;5.60;;;;;;;12.75;100.00;100698.72;4928557;29;20165;-72
2023/01/02 09:21:53;;;;;;;19.08;5.45;;;;;;;12.83;100.00;100684.22;4943829;29;20099;-72
2023/01/02 09:24:18;;;;;;;15.57;5.50;;;;;;;12.83;100.00;100695.09;4918833;29;20118;-72
2023/01/02 09:26:44;;;;;;;16.83;5.55;;;;;;;12.93;100.00;100693.88;4921658;29;20030;-72
2023/01/02 09:29:11;;;;;;;19.60;5.65;;;;;;;13.02;100.00;100683.78;4942454;29;20035;-72
2023/01/02 09:31:37;;;;;;;12.10;5.55;;;;;;;12.96;100.00;100679.06;4914787;29;20114;-72
2023/01/02 09:34:03;;;;;;;21.88;6.13;;;;;;;12.93;100.00;100690.31;4912332;29;20087;-72
2023/01/02 09:36:28;;;;;;;26.75;5.43;;;;;;;12.98;100.00;100682.47;4931870;29;20024;-71
2023/01/02 09:38:56;;;;;;;14.40;5.45;;;;;;;13.00;100.00;100694.00;4911345;29;20172;-72
2023/01/02 09:41:31;;;;;;;12.57;4.80;;;;;;;13.06;100.00;100687.84;4916959;29;20178;-71
2023/01/02 09:44:01;;;;;;;24.27;6.45;;;;;;;13.07;100.00;100681.38;4938479;29;20019;-71
2023/01/02 09:46:53;;;;;;;18.60;5.55;;;;;;;13.07;100.00;100686.81;4934379;29;20038;-72
2023/01/02 09:49:19;;;;;;;;;;;;;;;13.18;100.00;100678.28;4931337;29;20570;-72
2023/01/02 09:51:45;;;;;;;17.52;4.75;;;;;;;13.09;100.00;100695.63;4911509;29;19922;-71
2023/01/02 09:54:21;;;;;;;18.98;5.00;;;;;;;13.02;100.00;100684.63;4938139;29;20024;-72
2023/01/02 09:56:54;;;;;;;12.13;4.10;;;;;;;12.99;100.00;100689.59;4915109;29;20122;-72
2023/01/02 09:59:30;;;;;;;11.93;4.65;;;;;;;13.09;100.00;100683.91;4913447;29;20031;-72
2023/01/02 10:02:11;;;;;;;15.52;5.20;;;;;;;13.05;100.00;100691.59;4929293;29;20100;-72
2023/01/02 10:05:08;;;;;;;16.75;4.22;;;;;;;13.08;100.00;100688.50;4940815;29;20626;-72
2023/01/02 10:07:41;;;;;;;13.75;4.88;;;;;;;13.12;100.00;100689.88;4941408;28;20113;-73
2023/01/02 10:10:14;;;;;;;18.02;4.85;;;;;;;13.14;100.00;100693.22;4937036;29;20024;-72
2023/01/02 10:13:20;;;;;;;20.88;5.30;;;;;;;13.11;100.00;100693.59;4943784;29;20023;-73
2023/01/02 10:15:49;;;;;;;19.13;4.88;;;;;;;13.15;100.00;100716.66;4906778;29;20059;-73
2023/01/02 10:18:50;;;;;;;16.85;4.88;;;;;;;13.12;100.00;100708.88;4909849;29;20039;-73
2023/01/02 10:21:22;;;;;;;14.02;4.47;;;;;;;13.10;100.00;100719.06;4910258;29;20110;-73
2023/01/02 10:23:53;;;;;;;;;;;;;;;13.12;100.00;100717.03;4940337;29;20103;-73
2023/01/02 10:26:20;;;;;;;11.65;4.15;;;;;;;13.27;100.00;100712.56;4922742;28;20017;-73
2023/01/02 10:28:54;;;;;;;11.93;4.00;;;;;;;13.15;100.00;100711.22;4921505;29;20155;-73
2023/01/02 10:31:23;;;;;;;17.00;4.55;;;;;;;13.11;100.00;100707.19;4921726;29;20035;-73
2023/01/02 10:33:52;;;;;;;13.18;5.03;;;;;;;13.13;100.00;100710.56;4916808;29;20051;-73
2023/01/02 10:36:23;;;;;;;12.68;3.85;;;;;;;13.16;100.00;100701.19;4934228;28;20028;-73
2023/01/02 10:38:49;;;;;;;20.27;5.15;;;;;;;13.17;100.00;100697.44;4921766;29;20399;-73
2023/01/02 10:41:16;;;;;;;13.13;3.83;;;;;;;13.21;100.00;100705.13;4937090;29;20032;-73
2023/01/02 10:43:51;;;;;;;19.15;4.15;;;;;;;13.18;100.00;100705.47;4918688;29;20042;-73
2023/01/02 10:46:17;;;;;;;11.63;4.35;;;;;;;13.19;100.00;100707.16;4917460;28;20043;-73
2023/01/02 10:48:42;;;;;;;12.82;3.63;;;;;;;13.23;100.00;100708.50;4922048;29;20038;-73
2023/01/02 10:51:13;;;;;;;13.77;4.80;;;;;;;13.23;100.00;100703.06;4923767;29;20020;-72
2023/01/02 10:53:38;;;;;;;23.90;4.75;;;;;;;13.12;100.00;100719.75;4930749;29;20031;-72
2023/01/02 10:56:09;;;;;;;13.15;3.58;;;;;;;13.04;100.00;100703.50;4910585;29;20058;-72
2023/01/02 10:58:44;;;;;;;18.23;4.70;;;;;;;12.94;100.00;100762.66;4916577;29;20149;-72
2023/01/02 11:01:12;;;;;;;11.30;4.25;;;;;;;12.97;100.00;100735.09;4918402;29;20031;-72
2023/01/02 11:03:38;;;;;;;11.23;4.05;;;;;;;12.80;100.00;100738.94;4930066;29;20490;-71
2023/01/02 11:06:18;;;;;;;18.63;3.95;;;;;;;12.75;100.00;100725.88;4927198;29;20024;-72
2023/01/02 11:08:43;;;;;;;11.35;3.70;;;;;;;12.74;100.00;100719.59;4913368;29;20023;-71
2023/01/02 11:11:13;;;;;;;9.40;4.07;;;;;;;12.70;100.00;100744.56;4933006;29;20031;-71
2023/01/02 11:13:48;;;;;;;14.48;4.28;;;;;;;12.77;100.00;100734.69;4937955;29;20016;-71
2023/01/02 11:16:15;;;;;;;17.45;4.63;;;;;;;12.70;100.00;100734.53;4911545;29;20467;-72
2023/01/02 11:18:48;;;;;;;6.53;3.40;;;;;;;12.57;100.00;100734.25;4932021;29;20057;-73
2023/01/02 11:21:33;;;;;;;14.38;3.47;;;;;;;12.68;100.00;100739.31;4924486;29;20031;-71
2023/01/02 11:24:01;;;;;;;10.45;3.72;;;;;;;12.67;100.00;100729.47;4911970;29;20030;-71